createdAt,value
2017-11-24T00:01:22.092Z,7.10
2017-11-24T00:03:51.719Z,7.00
2017-11-24T00:06:18.642Z,6.90
2017-11-24T00:08:45.553Z,6.90
2017-11-24T00:11:12.474Z,7.00
2017-11-24T00:13:39.395Z,6.90
2017-11-24T00:16:06.326Z,6.90
2017-11-24T00:18:33.234Z,6.90
2017-11-24T00:21:00.151Z,6.80
2017-11-24T00:23:27.073Z,6.80
2017-11-24T00:25:53.985Z,6.90
2017-11-24T00:28:21.987Z,6.80
2017-11-24T00:30:48.911Z,6.80
2017-11-24T00:33:16.751Z,6.80
2017-11-24T00:35:43.690Z,6.70
2017-11-24T00:38:10.590Z,6.80
2017-11-24T00:40:37.510Z,6.70
2017-11-24T00:43:05.177Z,6.60
2017-11-24T00:45:32.862Z,6.60
2017-11-24T00:47:59.785Z,6.70
2017-11-24T00:50:26.718Z,6.60
2017-11-24T00:52:53.643Z,6.60
2017-11-24T00:55:20.584Z,6.70
2017-11-24T00:57:47.492Z,6.70
2017-11-24T01:00:14.393Z,6.60
2017-11-24T01:02:42.070Z,6.70
2017-11-24T01:05:09.024Z,6.70
2017-11-24T01:07:35.937Z,6.60
2017-11-24T01:10:03.651Z,6.60
2017-11-24T01:12:31.577Z,6.60
2017-11-24T01:14:59.258Z,6.70
2017-11-24T01:17:26.165Z,6.70
2017-11-24T01:19:54.044Z,6.80
2017-11-24T01:22:21.722Z,6.80
2017-11-24T01:24:48.662Z,7.10
2017-11-24T01:27:16.456Z,6.80
2017-11-24T01:29:43.382Z,6.80
2017-11-24T01:32:10.301Z,6.70
2017-11-24T01:34:38.009Z,6.60
2017-11-24T01:37:04.922Z,6.60
2017-11-24T01:39:31.850Z,6.60
2017-11-24T01:41:59.541Z,6.70
2017-11-24T01:44:26.459Z,6.70
2017-11-24T01:46:54.135Z,6.70
2017-11-24T01:49:22.043Z,6.70
2017-11-24T01:51:48.946Z,6.80
2017-11-24T01:54:15.878Z,6.70
2017-11-24T01:56:44.476Z,6.70
2017-11-24T01:59:11.399Z,6.70
2017-11-24T02:01:38.302Z,6.60
2017-11-24T02:04:05.239Z,6.50
2017-11-24T02:06:32.166Z,6.50
2017-11-24T02:08:59.093Z,6.40
2017-11-24T02:11:26.760Z,6.40
2017-11-24T02:13:55.635Z,6.40
2017-11-24T02:16:25.681Z,6.40
2017-11-24T02:18:52.596Z,6.40
2017-11-24T02:21:20.284Z,6.50
2017-11-24T02:23:47.197Z,6.50
2017-11-24T02:26:14.865Z,6.60
2017-11-24T02:28:42.549Z,6.70
2017-11-24T02:31:09.476Z,7.00
2017-11-24T02:33:37.170Z,6.70
2017-11-24T02:36:04.373Z,6.70
2017-11-24T02:38:32.056Z,6.80
2017-11-24T02:40:58.960Z,6.80
2017-11-24T02:43:25.885Z,6.90
2017-11-24T02:45:52.802Z,6.80
2017-11-24T02:48:19.736Z,6.90
2017-11-24T02:50:46.638Z,6.90
2017-11-24T02:53:13.570Z,7.00
2017-11-24T02:55:40.771Z,7.00
2017-11-24T02:58:07.690Z,7.00
2017-11-24T03:00:35.538Z,7.00
2017-11-24T03:03:02.443Z,7.00
2017-11-24T03:05:29.373Z,7.00
2017-11-24T03:07:56.277Z,7.00
2017-11-24T03:10:23.190Z,7.00
2017-11-24T03:12:51.509Z,6.90
2017-11-24T03:15:18.438Z,6.90
2017-11-24T03:17:45.347Z,6.80
2017-11-24T03:20:12.285Z,6.90
2017-11-24T03:22:39.189Z,6.90
2017-11-24T03:25:06.098Z,6.90
2017-11-24T03:27:36.593Z,6.90
2017-11-24T03:30:04.299Z,6.90
2017-11-24T03:32:31.229Z,6.90
2017-11-24T03:34:58.147Z,6.90
2017-11-24T03:37:25.078Z,6.90
2017-11-24T03:39:51.980Z,6.90
2017-11-24T03:42:18.906Z,6.90
2017-11-24T03:44:45.823Z,6.80
2017-11-24T03:47:12.739Z,6.80
2017-11-24T03:49:40.413Z,6.80
2017-11-24T03:52:07.349Z,6.80
2017-11-24T03:54:35.029Z,6.90
2017-11-24T03:57:01.955Z,6.90
2017-11-24T03:59:29.633Z,6.90
2017-11-24T04:01:56.562Z,6.90
2017-11-24T04:04:24.236Z,6.90
2017-11-24T04:06:51.190Z,6.70
2017-11-24T04:09:18.102Z,6.90
2017-11-24T04:11:45.793Z,7.00
2017-11-24T04:14:12.691Z,6.90
2017-11-24T04:16:39.623Z,6.90
2017-11-24T04:19:06.546Z,6.90
2017-11-24T04:21:33.454Z,7.00
2017-11-24T04:24:01.135Z,7.00
2017-11-24T04:26:28.049Z,7.00
2017-11-24T04:28:55.725Z,7.00
2017-11-24T04:31:23.427Z,7.00
2017-11-24T04:33:50.337Z,7.00
2017-11-24T04:36:17.285Z,7.00
2017-11-24T04:38:44.195Z,7.00
2017-11-24T04:41:11.127Z,7.00
2017-11-24T04:43:39.017Z,7.00
2017-11-24T04:46:06.738Z,6.90
2017-11-24T04:48:33.664Z,7.00
2017-11-24T04:51:00.596Z,6.90
2017-11-24T04:53:27.521Z,6.90
2017-11-24T04:55:56.219Z,6.90
2017-11-24T04:58:23.127Z,7.00
2017-11-24T05:00:50.075Z,6.90
2017-11-24T05:03:17.945Z,6.90
2017-11-24T05:05:45.643Z,6.90
2017-11-24T05:08:12.565Z,6.90
2017-11-24T05:10:40.282Z,6.80
2017-11-24T05:13:07.196Z,6.80
2017-11-24T05:15:34.132Z,6.90
2017-11-24T05:18:01.970Z,6.90
2017-11-24T05:20:28.911Z,6.90
2017-11-24T05:22:55.822Z,6.90
2017-11-24T05:25:22.750Z,6.90
2017-11-24T05:27:49.662Z,6.90
2017-11-24T05:30:16.645Z,6.90
2017-11-24T05:32:43.596Z,7.00
2017-11-24T05:35:10.514Z,7.00
2017-11-24T05:37:38.370Z,6.90
2017-11-24T05:40:05.292Z,7.00
2017-11-24T05:42:32.983Z,7.00
2017-11-24T05:44:59.939Z,7.00
2017-11-24T05:47:26.860Z,7.00
2017-11-24T05:49:53.784Z,7.10
2017-11-24T05:52:20.716Z,7.00
2017-11-24T05:54:47.634Z,7.00
2017-11-24T05:57:14.563Z,7.10
2017-11-24T05:59:41.475Z,7.10
2017-11-24T06:02:10.181Z,7.10
2017-11-24T06:04:37.084Z,7.20
2017-11-24T06:07:04.022Z,7.00
2017-11-24T06:09:30.947Z,7.10
2017-11-24T06:11:59.501Z,7.10
2017-11-24T06:14:26.409Z,7.10
2017-11-24T06:16:53.617Z,7.00
2017-11-24T06:19:20.537Z,7.00
2017-11-24T06:21:47.456Z,7.00
2017-11-24T06:24:15.138Z,7.00
2017-11-24T06:26:42.063Z,7.00
2017-11-24T06:29:09.756Z,7.00
2017-11-24T06:31:36.689Z,7.20
2017-11-24T06:34:03.646Z,7.10
2017-11-24T06:36:31.600Z,7.10
2017-11-24T06:39:00.594Z,7.10
2017-11-24T06:41:27.588Z,7.10
2017-11-24T06:43:55.540Z,7.10
2017-11-24T06:46:23.482Z,7.10
2017-11-24T06:48:50.413Z,7.20
2017-11-24T06:51:19.116Z,7.10
2017-11-24T06:53:46.046Z,7.10
2017-11-24T06:56:13.732Z,7.20
2017-11-24T06:58:40.647Z,7.30
2017-11-24T07:01:08.375Z,7.10
2017-11-24T07:03:36.279Z,7.10
2017-11-24T07:06:03.240Z,7.20
2017-11-24T07:08:30.162Z,7.20
2017-11-24T07:10:57.113Z,7.20
2017-11-24T07:13:25.798Z,7.20
2017-11-24T07:15:53.504Z,7.20
2017-11-24T07:18:21.181Z,7.20
2017-11-24T07:20:48.119Z,7.30
2017-11-24T07:23:15.020Z,7.20
2017-11-24T07:25:41.954Z,7.20
2017-11-24T07:28:08.882Z,7.20
2017-11-24T07:30:36.595Z,7.20
2017-11-24T07:33:03.510Z,7.20
2017-11-24T07:35:30.446Z,7.20
2017-11-24T07:37:58.153Z,7.20
2017-11-24T07:40:25.141Z,7.20
2017-11-24T07:42:53.839Z,7.20
2017-11-24T07:45:21.579Z,7.10
2017-11-24T07:47:48.514Z,7.10
2017-11-24T07:50:15.468Z,7.20
2017-11-24T07:52:42.399Z,7.20
2017-11-24T07:55:10.351Z,7.20
2017-11-24T07:57:37.268Z,7.10
2017-11-24T08:00:04.642Z,7.10
2017-11-24T08:02:31.582Z,7.10
2017-11-24T08:04:58.863Z,7.20
2017-11-24T08:07:26.096Z,7.20
2017-11-24T08:09:53.021Z,7.20
2017-11-24T08:12:19.936Z,7.20
2017-11-24T08:14:48.633Z,7.30
2017-11-24T08:17:16.318Z,7.30
2017-11-24T08:19:45.199Z,7.30
2017-11-24T08:22:12.125Z,7.40
2017-11-24T08:24:39.056Z,7.30
2017-11-24T08:27:06.781Z,7.30
2017-11-24T08:29:33.711Z,7.30
2017-11-24T08:32:00.626Z,7.30
2017-11-24T08:34:28.335Z,7.30
2017-11-24T08:36:55.275Z,7.30
2017-11-24T08:39:23.196Z,7.30
2017-11-24T08:41:51.881Z,7.40
2017-11-24T08:44:18.818Z,7.40
2017-11-24T08:46:46.492Z,7.50
2017-11-24T08:49:13.419Z,7.60
2017-11-24T08:51:41.125Z,7.30
2017-11-24T08:54:08.070Z,7.30
2017-11-24T08:56:35.005Z,7.40
2017-11-24T08:59:01.930Z,7.40
2017-11-24T09:01:28.878Z,7.40
2017-11-24T09:03:55.797Z,7.50
2017-11-24T09:06:25.422Z,7.40
2017-11-24T09:08:53.121Z,7.40
2017-11-24T09:11:20.058Z,7.30
2017-11-24T09:13:46.992Z,7.40
2017-11-24T09:16:13.967Z,7.50
2017-11-24T09:18:40.888Z,7.50
2017-11-24T09:21:07.897Z,7.40
2017-11-24T09:23:34.854Z,7.50
2017-11-24T09:26:01.865Z,7.50
2017-11-24T09:28:28.873Z,7.50
2017-11-24T09:30:55.973Z,7.50
2017-11-24T09:33:23.801Z,7.40
2017-11-24T09:35:50.872Z,7.40
2017-11-24T09:38:18.205Z,7.40
2017-11-24T09:40:45.140Z,7.40
2017-11-24T09:43:12.122Z,7.40
2017-11-24T09:45:39.044Z,7.30
2017-11-24T09:48:07.110Z,7.30
2017-11-24T09:50:34.078Z,7.40
2017-11-24T09:53:01.059Z,7.40
2017-11-24T09:55:28.031Z,7.40
2017-11-24T09:57:56.006Z,7.50
2017-11-24T10:00:22.982Z,7.40
2017-11-24T10:02:52.569Z,7.50
2017-11-24T10:05:21.295Z,7.50
2017-11-24T10:07:49.537Z,7.50
2017-11-24T10:10:17.264Z,7.60
2017-11-24T10:12:45.288Z,7.50
2017-11-24T10:15:12.213Z,7.60
2017-11-24T10:17:39.142Z,7.80
2017-11-24T10:20:06.056Z,7.80
2017-11-24T10:22:33.976Z,7.80
2017-11-24T10:25:00.885Z,7.70
2017-11-24T10:27:28.822Z,7.60
2017-11-24T10:29:56.822Z,7.80
2017-11-24T10:32:23.751Z,7.80
2017-11-24T10:34:51.546Z,7.90
2017-11-24T10:37:18.621Z,7.80
2017-11-24T10:39:45.539Z,7.90
2017-11-24T10:42:12.466Z,8.00
2017-11-24T10:44:39.394Z,7.90
2017-11-24T10:47:07.305Z,8.00
2017-11-24T10:49:34.232Z,8.10
2017-11-24T10:52:01.184Z,8.00
2017-11-24T10:54:28.083Z,8.10
2017-11-24T10:56:55.793Z,8.10
2017-11-24T10:59:22.705Z,8.10
2017-11-24T11:01:50.554Z,8.10
2017-11-24T11:04:20.166Z,8.20
2017-11-24T11:06:47.911Z,8.00
2017-11-24T11:09:15.807Z,8.20
2017-11-24T11:11:42.747Z,8.00
2017-11-24T11:14:10.452Z,8.10
2017-11-24T11:16:37.390Z,8.00
2017-11-24T11:19:04.303Z,8.10
2017-11-24T11:21:31.236Z,8.10
2017-11-24T11:23:58.923Z,8.10
2017-11-24T11:26:26.813Z,8.00
2017-11-24T11:28:53.717Z,8.00
2017-11-24T11:31:20.629Z,8.00
2017-11-24T11:33:47.572Z,8.00
2017-11-24T11:36:15.416Z,8.10
2017-11-24T11:38:42.385Z,8.10
2017-11-24T11:41:10.277Z,8.10
2017-11-24T11:43:37.977Z,8.10
2017-11-24T11:46:04.885Z,8.10
2017-11-24T11:48:33.600Z,8.10
2017-11-24T11:51:00.527Z,8.10
2017-11-24T11:53:27.456Z,8.10
2017-11-24T11:55:54.373Z,8.10
2017-11-24T11:58:21.311Z,8.20
2017-11-24T12:00:48.234Z,8.10
2017-11-24T12:03:15.164Z,8.10
2017-11-24T12:05:47.431Z,8.00
2017-11-24T12:08:16.366Z,8.00
2017-11-24T12:10:44.254Z,8.10
2017-11-24T12:13:12.870Z,8.00
2017-11-24T12:15:39.805Z,8.00
2017-11-24T12:18:06.758Z,7.90
2017-11-24T12:20:35.545Z,7.90
2017-11-24T12:23:02.482Z,7.90
2017-11-24T12:25:30.334Z,7.90
2017-11-24T12:27:58.036Z,7.90
2017-11-24T12:30:24.950Z,7.90
2017-11-24T12:32:51.872Z,7.80
2017-11-24T12:35:18.790Z,7.70
2017-11-24T12:37:47.472Z,7.80
2017-11-24T12:40:15.381Z,7.80
2017-11-24T12:42:45.010Z,7.70
2017-11-24T12:45:12.132Z,7.70
2017-11-24T12:47:39.826Z,7.60
2017-11-24T12:50:06.779Z,7.60
2017-11-24T12:52:33.712Z,7.60
2017-11-24T12:55:01.543Z,7.40
2017-11-24T12:57:29.440Z,7.40
2017-11-24T12:59:56.345Z,7.40
2017-11-24T13:02:23.262Z,7.10
2017-11-24T13:04:50.174Z,7.00
2017-11-24T13:07:17.102Z,7.10
2017-11-24T13:09:44.986Z,7.00
2017-11-24T13:12:13.896Z,7.00
2017-11-24T13:14:40.814Z,7.00
2017-11-24T13:17:07.775Z,7.00
2017-11-24T13:19:34.703Z,7.10
2017-11-24T13:22:01.627Z,7.20
2017-11-24T13:24:29.312Z,7.20
2017-11-24T13:26:56.246Z,7.10
2017-11-24T13:29:23.927Z,7.30
2017-11-24T13:31:50.872Z,7.50
2017-11-24T13:34:17.803Z,7.50
2017-11-24T13:36:44.742Z,7.60
2017-11-24T13:39:12.556Z,7.60
2017-11-24T13:41:40.386Z,7.50
2017-11-24T13:44:07.283Z,7.50
2017-11-24T13:46:34.263Z,7.40
2017-11-24T13:49:03.151Z,7.30
2017-11-24T13:51:31.831Z,7.30
2017-11-24T13:54:00.449Z,7.50
2017-11-24T13:56:27.374Z,7.50
2017-11-24T13:58:55.240Z,7.40
2017-11-24T14:01:25.487Z,7.40
2017-11-24T14:03:52.400Z,7.30
2017-11-24T14:06:20.292Z,7.30
2017-11-24T14:08:47.214Z,7.40
2017-11-24T14:11:14.290Z,7.40
2017-11-24T14:13:41.220Z,7.30
2017-11-24T14:16:10.069Z,7.40
2017-11-24T14:18:41.614Z,7.40
2017-11-24T14:21:10.246Z,7.30
2017-11-24T14:23:41.761Z,7.30
2017-11-24T14:26:09.458Z,7.20
2017-11-24T14:28:36.367Z,7.40
2017-11-24T14:31:03.343Z,7.20
2017-11-24T14:33:32.207Z,7.30
2017-11-24T14:36:01.917Z,7.30
2017-11-24T14:38:28.834Z,7.60
2017-11-24T14:40:58.794Z,7.20
2017-11-24T14:43:25.710Z,7.20
2017-11-24T14:45:52.643Z,7.20
2017-11-24T14:48:27.314Z,7.20
2017-11-24T14:50:54.258Z,7.20
2017-11-24T14:53:21.170Z,7.20
2017-11-24T14:55:48.884Z,7.20
2017-11-24T14:58:15.865Z,7.10
2017-11-24T15:00:43.761Z,7.10
2017-11-24T15:03:10.679Z,7.10
2017-11-24T15:05:39.605Z,7.10
2017-11-24T15:08:08.457Z,7.10
2017-11-24T15:10:35.383Z,7.10
2017-11-24T15:13:05.949Z,7.10
2017-11-24T15:15:33.654Z,7.00
2017-11-24T15:18:03.957Z,6.80
2017-11-24T15:20:30.914Z,6.80
2017-11-24T15:22:57.823Z,6.60
2017-11-24T15:25:26.527Z,6.50
2017-11-24T15:27:54.349Z,6.60
2017-11-24T15:30:21.290Z,6.40
2017-11-24T15:32:49.203Z,6.40
2017-11-24T15:35:16.882Z,6.30
2017-11-24T15:37:43.776Z,6.30
2017-11-24T15:40:10.690Z,6.40
2017-11-24T15:42:37.599Z,6.40
2017-11-24T15:45:07.303Z,6.40
2017-11-24T15:47:37.018Z,6.60
2017-11-24T15:50:04.089Z,6.50
2017-11-24T15:52:31.001Z,6.50
2017-11-24T15:54:58.701Z,6.60
2017-11-24T15:57:26.646Z,6.60
2017-11-24T15:59:53.635Z,6.70
2017-11-24T16:02:20.563Z,6.70
2017-11-24T16:04:47.492Z,6.80
2017-11-24T16:07:14.495Z,6.80
2017-11-24T16:09:42.482Z,6.40
2017-11-24T16:12:10.157Z,6.40
2017-11-24T16:14:38.432Z,6.30
2017-11-24T16:17:05.344Z,6.40
2017-11-24T16:19:32.281Z,6.40
2017-11-24T16:22:05.227Z,6.40
2017-11-24T16:24:32.166Z,6.50
2017-11-24T16:26:59.084Z,6.50
2017-11-24T16:29:30.233Z,6.50
2017-11-24T16:31:57.914Z,6.60
2017-11-24T16:34:24.879Z,6.60
2017-11-24T16:36:52.795Z,6.50
2017-11-24T16:39:21.481Z,6.40
2017-11-24T16:41:49.150Z,6.50
2017-11-24T16:44:16.080Z,6.60
2017-11-24T16:46:43.942Z,6.40
2017-11-24T16:49:11.659Z,6.40
2017-11-24T16:51:38.571Z,6.40
2017-11-24T16:54:05.518Z,6.30
2017-11-24T16:56:32.442Z,6.30
2017-11-24T16:58:59.372Z,6.30
2017-11-24T17:01:26.306Z,6.30
2017-11-24T17:03:53.718Z,6.30
2017-11-24T17:06:20.638Z,6.30
2017-11-24T17:08:48.328Z,6.40
2017-11-24T17:11:15.239Z,6.30
2017-11-24T17:13:43.937Z,6.30
2017-11-24T17:16:11.596Z,6.30
2017-11-24T17:18:38.537Z,6.40
2017-11-24T17:21:06.236Z,6.30
2017-11-24T17:23:34.174Z,6.30
2017-11-24T17:26:01.086Z,6.20
2017-11-24T17:28:28.005Z,6.20
2017-11-24T17:30:54.930Z,6.30
2017-11-24T17:33:21.840Z,6.30
2017-11-24T17:35:49.722Z,6.30
2017-11-24T17:38:16.662Z,6.20
2017-11-24T17:40:43.595Z,6.20
2017-11-24T17:43:10.682Z,6.10
2017-11-24T17:45:37.590Z,6.00
2017-11-24T17:48:05.285Z,6.10
2017-11-24T17:50:32.200Z,6.00
2017-11-24T17:52:59.909Z,5.90
2017-11-24T17:55:26.861Z,5.90
2017-11-24T17:57:54.800Z,5.90
2017-11-24T18:00:22.669Z,5.80
2017-11-24T18:02:49.602Z,5.80
2017-11-24T18:05:20.931Z,5.90
2017-11-24T18:07:51.667Z,6.10
2017-11-24T18:10:18.581Z,6.10
2017-11-24T18:12:46.418Z,6.00
2017-11-24T18:15:13.323Z,6.00
2017-11-24T18:17:40.256Z,6.00
2017-11-24T18:20:11.400Z,5.80
2017-11-24T18:22:39.096Z,5.80
2017-11-24T18:25:06.013Z,5.80
2017-11-24T18:27:32.949Z,5.70
2017-11-24T18:29:59.888Z,5.70
2017-11-24T18:32:32.192Z,5.60
2017-11-24T18:34:59.125Z,5.60
2017-11-24T18:37:29.171Z,5.70
2017-11-24T18:39:56.064Z,5.70
2017-11-24T18:42:23.738Z,5.70
2017-11-24T18:44:50.676Z,5.60
2017-11-24T18:47:18.401Z,5.70
2017-11-24T18:49:47.273Z,5.60
2017-11-24T18:52:17.022Z,5.80
2017-11-24T18:54:43.924Z,5.90
2017-11-24T18:57:10.839Z,5.90
2017-11-24T18:59:38.512Z,5.90
2017-11-24T19:02:05.441Z,6.00
2017-11-24T19:04:32.499Z,5.70
2017-11-24T19:06:59.426Z,5.60
2017-11-24T19:09:28.293Z,5.50
2017-11-24T19:11:55.260Z,5.40
2017-11-24T19:14:22.944Z,5.30
2017-11-24T19:16:49.873Z,5.30
2017-11-24T19:19:22.343Z,5.20
2017-11-24T19:21:50.228Z,5.40
2017-11-24T19:24:17.158Z,5.30
2017-11-24T19:26:45.054Z,5.20
2017-11-24T19:29:12.952Z,5.20
2017-11-24T19:31:39.882Z,5.10
2017-11-24T19:34:06.812Z,5.00
2017-11-24T19:36:33.758Z,5.00
2017-11-24T19:39:02.414Z,5.00
2017-11-24T19:41:33.074Z,4.90
2017-11-24T19:44:00.902Z,4.90
2017-11-24T19:46:29.605Z,4.80
2017-11-24T19:49:03.206Z,4.60
2017-11-24T19:51:30.128Z,4.80
2017-11-24T19:53:57.805Z,4.70
2017-11-24T19:56:25.497Z,4.80
2017-11-24T19:58:53.340Z,4.70
2017-11-24T20:01:21.175Z,4.80
2017-11-24T20:03:48.095Z,4.80
2017-11-24T20:06:15.036Z,4.70
2017-11-24T20:08:41.962Z,4.80
2017-11-24T20:11:08.911Z,4.70
2017-11-24T20:13:35.815Z,4.80
2017-11-24T20:16:03.540Z,4.70
2017-11-24T20:18:30.454Z,4.60
2017-11-24T20:20:57.414Z,4.70
2017-11-24T20:23:24.324Z,4.70
2017-11-24T20:25:52.167Z,4.70
2017-11-24T20:28:19.086Z,4.70
2017-11-24T20:30:46.014Z,4.70
2017-11-24T20:33:12.934Z,4.80
2017-11-24T20:35:41.772Z,4.70
2017-11-24T20:38:09.690Z,4.60
2017-11-24T20:40:37.515Z,4.60
2017-11-24T20:43:05.201Z,4.50
2017-11-24T20:45:33.895Z,4.60
2017-11-24T20:48:00.975Z,4.60
2017-11-24T20:50:27.898Z,4.70
2017-11-24T20:52:54.816Z,4.50
2017-11-24T20:55:22.501Z,4.40
2017-11-24T20:57:50.256Z,4.50
2017-11-24T21:00:17.174Z,4.30
2017-11-24T21:02:45.283Z,4.30
2017-11-24T21:05:12.201Z,4.30
2017-11-24T21:07:39.891Z,4.40
2017-11-24T21:10:06.819Z,4.40
2017-11-24T21:12:33.754Z,4.30
2017-11-24T21:15:02.637Z,4.30
2017-11-24T21:17:30.360Z,4.30
2017-11-24T21:19:58.270Z,4.40
2017-11-24T21:22:26.963Z,4.20
2017-11-24T21:24:53.887Z,4.10
2017-11-24T21:27:20.842Z,4.20
2017-11-24T21:29:49.541Z,4.10
2017-11-24T21:32:17.427Z,4.10
2017-11-24T21:34:44.402Z,4.10
2017-11-24T21:37:16.939Z,4.00
2017-11-24T21:39:43.866Z,4.00
2017-11-24T21:42:12.579Z,4.00
2017-11-24T21:44:40.409Z,4.10
2017-11-24T21:47:09.109Z,3.90
2017-11-24T21:49:38.066Z,4.10
2017-11-24T21:52:06.087Z,3.90
2017-11-24T21:54:33.003Z,3.90
2017-11-24T21:57:00.700Z,4.10
2017-11-24T21:59:28.544Z,4.10
2017-11-24T22:01:55.476Z,4.00
2017-11-24T22:04:24.430Z,4.10
2017-11-24T22:06:51.368Z,4.10
2017-11-24T22:09:19.006Z,4.00
2017-11-24T22:11:45.972Z,4.10
2017-11-24T22:14:12.878Z,4.00
2017-11-24T22:16:40.737Z,3.90
2017-11-24T22:19:08.413Z,3.80
2017-11-24T22:21:35.354Z,4.00
2017-11-24T22:24:02.336Z,3.80
2017-11-24T22:26:29.277Z,3.70
2017-11-24T22:28:56.191Z,3.80
2017-11-24T22:31:23.217Z,3.80
2017-11-24T22:33:50.126Z,3.80
2017-11-24T22:36:17.073Z,3.80
2017-11-24T22:38:45.080Z,3.80
2017-11-24T22:41:13.774Z,3.70
2017-11-24T22:43:40.765Z,3.60
2017-11-24T22:46:07.941Z,3.70
2017-11-24T22:48:34.997Z,3.60
2017-11-24T22:51:01.982Z,3.70
2017-11-24T22:53:28.910Z,3.70
2017-11-24T22:55:55.879Z,3.60
2017-11-24T22:58:22.782Z,3.60
2017-11-24T23:00:50.488Z,3.80
2017-11-24T23:03:17.420Z,4.00
2017-11-24T23:05:45.358Z,3.70
2017-11-24T23:08:14.961Z,3.50
2017-11-24T23:10:42.660Z,3.40
2017-11-24T23:13:09.569Z,3.40
2017-11-24T23:15:37.352Z,3.50
2017-11-24T23:18:06.027Z,3.50
2017-11-24T23:20:33.898Z,3.40
2017-11-24T23:23:01.752Z,3.40
2017-11-24T23:25:29.466Z,3.50
2017-11-24T23:27:56.380Z,3.40
2017-11-24T23:30:24.217Z,3.40
2017-11-24T23:32:51.139Z,3.40
2017-11-24T23:35:18.083Z,3.30
2017-11-24T23:37:45.008Z,3.40
2017-11-24T23:40:11.938Z,3.30
2017-11-24T23:42:43.477Z,3.30
2017-11-24T23:45:11.314Z,3.30
2017-11-24T23:47:38.988Z,3.30
2017-11-24T23:50:05.915Z,3.20
2017-11-24T23:52:33.610Z,3.30
2017-11-24T23:55:00.529Z,3.40
2017-11-24T23:57:28.207Z,3.20
2017-11-24T23:59:55.150Z,3.20
